EDLV METAR and TAF | Updated Today

EDLV METAR

Weeze Airport

Observation time: 34 min. ago

EDLV 062020Z 16004KT CAVOK 10/07 Q1029

Need help? Read our tutorial on how to read METARs or read the parsed version below.

Weeze Airport (EDLV) METAR

  • Weather conditions on Thu, 06 Oct 2022 20:20:00 +0000 (34 min. ago):
  • Present conditions: Dry
  • Clouds: Clear skies
  • Visibility: Greater than 10 km
  • Wind: 160 degrees at 4 knots
  • Temperature: 10 celsius
  • Dew point: 7 celsius
  • Pressure: 1029 millibars
  • Remarks: None


Useful to know...

EDLV TAF

Weeze Airport

TAF EDLV 061700Z 0618/0718 18004KT CAVOK BECMG 0708/0711 21010KT
Observation time: 3:54 hr. ago
Need help? Read our tutorial on how to read TAFs or read the parsed version below.

Parsed version of TAF for Weeze Airport (EDLV)

  • From 06 October at 18:00 UTC, to day 07 of the month at 18:00 UTC
  • Visibility: Greater than 10 km
  • Wind: 180 degrees at 4
  • Expected to arise soon, from 07 October at 08:00 UTC, to day 07 of the month at 11:00 UTC
  • Wind: 210 degrees at 10